sensor_id;sensor_type;location;lat;lon;timestamp;pressure;altitude;pressure_sealevel;temperature;humidity
70544;BME280;58097;48.364;-1.224;2023-05-21T00:00:57;99841.88;;;13.46;65.52
70544;BME280;58097;48.364;-1.224;2023-05-21T00:03:23;99845.00;;;13.43;65.27
70544;BME280;58097;48.364;-1.224;2023-05-21T00:05:51;99841.56;;;13.41;65.55
70544;BME280;58097;48.364;-1.224;2023-05-21T00:08:16;99841.72;;;13.39;65.44
70544;BME280;58097;48.364;-1.224;2023-05-21T00:10:42;99840.19;;;13.37;65.65
70544;BME280;58097;48.364;-1.224;2023-05-21T00:13:07;99844.00;;;13.36;65.96
70544;BME280;58097;48.364;-1.224;2023-05-21T00:15:33;99843.50;;;13.32;65.61
70544;BME280;58097;48.364;-1.224;2023-05-21T00:17:58;99846.28;;;13.32;66.34
70544;BME280;58097;48.364;-1.224;2023-05-21T00:20:24;99849.41;;;13.29;65.92
70544;BME280;58097;48.364;-1.224;2023-05-21T00:22:49;99844.03;;;13.27;65.88
70544;BME280;58097;48.364;-1.224;2023-05-21T00:25:15;99846.13;;;13.25;65.89
70544;BME280;58097;48.364;-1.224;2023-05-21T00:27:40;99844.75;;;13.21;66.01
70544;BME280;58097;48.364;-1.224;2023-05-21T00:30:06;99844.75;;;13.21;66.68
70544;BME280;58097;48.364;-1.224;2023-05-21T00:32:31;99845.97;;;13.19;66.93
70544;BME280;58097;48.364;-1.224;2023-05-21T00:34:57;99842.34;;;13.18;66.45
70544;BME280;58097;48.364;-1.224;2023-05-21T00:37:22;99835.22;;;13.16;66.26
70544;BME280;58097;48.364;-1.224;2023-05-21T00:39:48;99830.53;;;13.16;66.24
70544;BME280;58097;48.364;-1.224;2023-05-21T00:42:14;99828.13;;;13.13;66.64
70544;BME280;58097;48.364;-1.224;2023-05-21T00:44:43;99827.44;;;13.11;66.29
70544;BME280;58097;48.364;-1.224;2023-05-21T00:47:10;99818.78;;;13.06;66.46
70544;BME280;58097;48.364;-1.224;2023-05-21T00:49:36;99821.94;;;13.03;66.81
70544;BME280;58097;48.364;-1.224;2023-05-21T00:52:02;99824.16;;;12.99;67.04
70544;BME280;58097;48.364;-1.224;2023-05-21T00:54:29;99822.44;;;12.98;66.77
70544;BME280;58097;48.364;-1.224;2023-05-21T00:56:55;99824.34;;;12.98;66.96
70544;BME280;58097;48.364;-1.224;2023-05-21T00:59:20;99829.38;;;12.94;67.10
70544;BME280;58097;48.364;-1.224;2023-05-21T01:01:46;99819.50;;;12.92;66.98
70544;BME280;58097;48.364;-1.224;2023-05-21T01:04:18;99826.78;;;12.93;67.21
70544;BME280;58097;48.364;-1.224;2023-05-21T01:06:44;99816.91;;;12.90;66.87
70544;BME280;58097;48.364;-1.224;2023-05-21T01:09:10;99813.47;;;12.88;67.26
70544;BME280;58097;48.364;-1.224;2023-05-21T01:11:39;99813.66;;;12.87;67.27
70544;BME280;58097;48.364;-1.224;2023-05-21T01:14:05;99816.59;;;12.85;67.00
70544;BME280;58097;48.364;-1.224;2023-05-21T01:16:36;99806.91;;;12.81;67.12
70544;BME280;58097;48.364;-1.224;2023-05-21T01:19:02;99803.28;;;12.81;67.44
70544;BME280;58097;48.364;-1.224;2023-05-21T01:21:29;99801.72;;;12.78;67.32
70544;BME280;58097;48.364;-1.224;2023-05-21T01:23:55;99810.22;;;12.77;67.28
70544;BME280;58097;48.364;-1.224;2023-05-21T01:26:20;99807.97;;;12.72;67.10
70544;BME280;58097;48.364;-1.224;2023-05-21T01:28:46;99808.13;;;12.70;67.56
70544;BME280;58097;48.364;-1.224;2023-05-21T01:31:25;99821.50;;;12.67;67.14
70544;BME280;58097;48.364;-1.224;2023-05-21T01:33:54;99808.84;;;12.64;67.51
70544;BME280;58097;48.364;-1.224;2023-05-21T01:36:24;99811.63;;;12.64;67.64
70544;BME280;58097;48.364;-1.224;2023-05-21T01:38:58;99814.41;;;12.64;67.54
70544;BME280;58097;48.364;-1.224;2023-05-21T01:41:28;99808.84;;;12.64;67.76
70544;BME280;58097;48.364;-1.224;2023-05-21T01:43:57;99806.44;;;12.61;67.46
70544;BME280;58097;48.364;-1.224;2023-05-21T01:46:25;99807.84;;;12.57;67.61
70544;BME280;58097;48.364;-1.224;2023-05-21T01:48:53;99806.28;;;12.55;67.73
70544;BME280;58097;48.364;-1.224;2023-05-21T01:51:20;99806.47;;;12.53;67.74
70544;BME280;58097;48.364;-1.224;2023-05-21T01:53:45;99797.47;;;12.51;68.54
70544;BME280;58097;48.364;-1.224;2023-05-21T01:56:11;99801.44;;;12.49;68.38
70544;BME280;58097;48.364;-1.224;2023-05-21T01:58:36;99797.44;;;12.43;69.09
70544;BME280;58097;48.364;-1.224;2023-05-21T02:01:02;99789.16;;;12.35;69.22
70544;BME280;58097;48.364;-1.224;2023-05-21T02:03:28;99793.50;;;12.29;70.13
70544;BME280;58097;48.364;-1.224;2023-05-21T02:05:55;99798.53;;;12.26;70.38
70544;BME280;58097;48.364;-1.224;2023-05-21T02:08:20;99797.16;;;12.22;70.08
70544;BME280;58097;48.364;-1.224;2023-05-21T02:10:47;99794.75;;;12.19;70.42
70544;BME280;58097;48.364;-1.224;2023-05-21T02:13:13;99786.06;;;12.14;70.81
70544;BME280;58097;48.364;-1.224;2023-05-21T02:15:38;99790.22;;;12.09;70.84
70544;BME280;58097;48.364;-1.224;2023-05-21T02:18:04;99789.88;;;12.04;72.11
70544;BME280;58097;48.364;-1.224;2023-05-21T02:20:30;99794.72;;;12.02;71.74
70544;BME280;58097;48.364;-1.224;2023-05-21T02:22:55;99791.81;;;11.96;72.37
70544;BME280;58097;48.364;-1.224;2023-05-21T02:25:21;99792.16;;;11.93;73.18
70544;BME280;58097;48.364;-1.224;2023-05-21T02:27:46;99788.16;;;11.95;72.24
70544;BME280;58097;48.364;-1.224;2023-05-21T02:30:14;99788.69;;;11.91;73.10
70544;BME280;58097;48.364;-1.224;2023-05-21T02:32:40;99789.38;;;11.93;71.64
70544;BME280;58097;48.364;-1.224;2023-05-21T02:35:07;99787.47;;;11.93;72.35
70544;BME280;58097;48.364;-1.224;2023-05-21T02:37:34;99793.00;;;11.93;72.46
70544;BME280;58097;48.364;-1.224;2023-05-21T02:40:03;99782.44;;;11.97;72.07
70544;BME280;58097;48.364;-1.224;2023-05-21T02:42:30;99784.72;;;11.93;73.02
70544;BME280;58097;48.364;-1.224;2023-05-21T02:44:55;99787.66;;;11.92;72.82
70544;BME280;58097;48.364;-1.224;2023-05-21T02:47:21;99778.81;;;11.88;72.78
70544;BME280;58097;48.364;-1.224;2023-05-21T02:49:48;99782.97;;;11.92;72.66
70544;BME280;58097;48.364;-1.224;2023-05-21T02:52:14;99780.38;;;11.91;72.57
70544;BME280;58097;48.364;-1.224;2023-05-21T02:54:40;99775.72;;;11.91;72.85
70544;BME280;58097;48.364;-1.224;2023-05-21T02:57:06;99779.50;;;11.90;73.27
70544;BME280;58097;48.364;-1.224;2023-05-21T02:59:31;99775.53;;;11.93;71.77
70544;BME280;58097;48.364;-1.224;2023-05-21T03:01:56;99776.41;;;11.93;72.28
70544;BME280;58097;48.364;-1.224;2023-05-21T03:04:22;99775.34;;;11.94;72.53
70544;BME280;58097;48.364;-1.224;2023-05-21T03:06:48;99774.16;;;11.89;74.05
70544;BME280;58097;48.364;-1.224;2023-05-21T03:09:16;99774.16;;;11.89;73.09
70544;BME280;58097;48.364;-1.224;2023-05-21T03:11:41;99776.06;;;11.88;72.79
70544;BME280;58097;48.364;-1.224;2023-05-21T03:14:07;99773.28;;;11.88;73.55
70544;BME280;58097;48.364;-1.224;2023-05-21T03:16:34;99779.00;;;11.87;73.77
70544;BME280;58097;48.364;-1.224;2023-05-21T03:18:59;99782.81;;;11.86;73.81
70544;BME280;58097;48.364;-1.224;2023-05-21T03:21:25;99781.06;;;11.85;73.29
70544;BME280;58097;48.364;-1.224;2023-05-21T03:23:54;99786.06;;;11.81;74.19
70544;BME280;58097;48.364;-1.224;2023-05-21T03:26:25;99784.34;;;11.80;74.20
70544;BME280;58097;48.364;-1.224;2023-05-21T03:28:54;99788.47;;;11.76;74.80
70544;BME280;58097;48.364;-1.224;2023-05-21T03:31:20;99780.50;;;11.73;74.74
70544;BME280;58097;48.364;-1.224;2023-05-21T03:33:45;99780.16;;;11.68;75.60
70544;BME280;58097;48.364;-1.224;2023-05-21T03:36:11;99788.28;;;11.69;74.88
70544;BME280;58097;48.364;-1.224;2023-05-21T03:38:36;99785.34;;;11.71;74.55
70544;BME280;58097;48.364;-1.224;2023-05-21T03:41:01;99785.53;;;11.69;74.88
70544;BME280;58097;48.364;-1.224;2023-05-21T03:43:27;99790.53;;;11.66;75.90
70544;BME280;58097;48.364;-1.224;2023-05-21T03:45:53;99791.56;;;11.65;75.92
70544;BME280;58097;48.364;-1.224;2023-05-21T03:48:18;99787.25;;;11.62;76.19
70544;BME280;58097;48.364;-1.224;2023-05-21T03:50:44;99799.88;;;11.65;75.69
70544;BME280;58097;48.364;-1.224;2023-05-21T03:53:09;99791.06;;;11.61;75.67
70544;BME280;58097;48.364;-1.224;2023-05-21T03:55:35;99798.66;;;11.59;76.31
70544;BME280;58097;48.364;-1.224;2023-05-21T03:58:00;99791.75;;;11.63;76.67
70544;BME280;58097;48.364;-1.224;2023-05-21T04:00:25;99798.31;;;11.62;77.14
70544;BME280;58097;48.364;-1.224;2023-05-21T04:02:51;99798.31;;;11.62;76.60
70544;BME280;58097;48.364;-1.224;2023-05-21T04:05:17;99798.50;;;11.61;76.77
70544;BME280;58097;48.364;-1.224;2023-05-21T04:07:42;99799.53;;;11.60;77.59
70544;BME280;58097;48.364;-1.224;2023-05-21T04:10:10;99804.72;;;11.63;76.96
70544;BME280;58097;48.364;-1.224;2023-05-21T04:12:36;99804.72;;;11.63;76.95
70544;BME280;58097;48.364;-1.224;2023-05-21T04:15:01;99800.41;;;11.60;76.69
70544;BME280;58097;48.364;-1.224;2023-05-21T04:17:26;99800.34;;;11.52;77.69
70544;BME280;58097;48.364;-1.224;2023-05-21T04:19:52;99807.13;;;11.58;76.69
70544;BME280;58097;48.364;-1.224;2023-05-21T04:22:18;99798.13;;;11.56;77.04
70544;BME280;58097;48.364;-1.224;2023-05-21T04:24:43;99810.94;;;11.57;77.78
70544;BME280;58097;48.364;-1.224;2023-05-21T04:27:11;99812.28;;;11.53;78.23
70544;BME280;58097;48.364;-1.224;2023-05-21T04:29:38;99811.59;;;11.51;78.31
70544;BME280;58097;48.364;-1.224;2023-05-21T04:32:07;99803.63;;;11.47;78.00
70544;BME280;58097;48.364;-1.224;2023-05-21T04:34:33;99802.25;;;11.52;77.91
70544;BME280;58097;48.364;-1.224;2023-05-21T04:36:59;99804.69;;;11.46;78.71
70544;BME280;58097;48.364;-1.224;2023-05-21T04:39:25;99805.88;;;11.44;79.14
70544;BME280;58097;48.364;-1.224;2023-05-21T04:41:50;99805.88;;;11.44;80.09
70544;BME280;58097;48.364;-1.224;2023-05-21T04:44:19;99812.09;;;11.38;80.63
70544;BME280;58097;48.364;-1.224;2023-05-21T04:46:44;99808.28;;;11.39;80.87
70544;BME280;58097;48.364;-1.224;2023-05-21T04:49:10;99815.22;;;11.35;81.36
70544;BME280;58097;48.364;-1.224;2023-05-21T04:51:35;99812.63;;;11.33;80.31
70544;BME280;58097;48.364;-1.224;2023-05-21T04:54:02;99811.56;;;11.34;81.83
70544;BME280;58097;48.364;-1.224;2023-05-21T04:56:27;99807.59;;;11.37;81.82
70544;BME280;58097;48.364;-1.224;2023-05-21T04:58:53;99806.91;;;11.35;82.00
70544;BME280;58097;48.364;-1.224;2023-05-21T05:01:19;99805.69;;;11.37;82.10
70544;BME280;58097;48.364;-1.224;2023-05-21T05:03:49;99807.44;;;11.38;81.17
70544;BME280;58097;48.364;-1.224;2023-05-21T05:06:16;99814.53;;;11.41;82.30
70544;BME280;58097;48.364;-1.224;2023-05-21T05:08:41;99808.28;;;11.39;82.87
70544;BME280;58097;48.364;-1.224;2023-05-21T05:11:06;99813.31;;;11.43;81.65
70544;BME280;58097;48.364;-1.224;2023-05-21T05:13:33;99814.72;;;11.47;82.33
70544;BME280;58097;48.364;-1.224;2023-05-21T05:15:58;99810.91;;;11.48;82.30
70544;BME280;58097;48.364;-1.224;2023-05-21T05:18:24;99808.13;;;11.48;82.72
70544;BME280;58097;48.364;-1.224;2023-05-21T05:20:50;99800.53;;;11.51;82.54
70544;BME280;58097;48.364;-1.224;2023-05-21T05:23:15;99801.59;;;11.58;81.32
70544;BME280;58097;48.364;-1.224;2023-05-21T05:25:41;99796.59;;;11.61;83.19
70544;BME280;58097;48.364;-1.224;2023-05-21T05:28:06;99804.38;;;11.66;81.49
70544;BME280;58097;48.364;-1.224;2023-05-21T05:30:31;99799.34;;;11.69;83.45
70544;BME280;58097;48.364;-1.224;2023-05-21T05:32:57;99799.53;;;11.76;82.50
70544;BME280;58097;48.364;-1.224;2023-05-21T05:35:22;99799.91;;;11.81;83.55
70544;BME280;58097;48.364;-1.224;2023-05-21T05:37:48;99802.03;;;11.87;83.79
70544;BME280;58097;48.364;-1.224;2023-05-21T05:40:13;99811.88;;;11.90;83.53
70544;BME280;58097;48.364;-1.224;2023-05-21T05:42:38;99803.06;;;11.94;83.96
70544;BME280;58097;48.364;-1.224;2023-05-21T05:45:04;99814.81;;;11.96;84.12
70544;BME280;58097;48.364;-1.224;2023-05-21T05:47:30;99812.41;;;12.01;83.97
70544;BME280;58097;48.364;-1.224;2023-05-21T05:49:55;99816.19;;;12.08;83.94
70544;BME280;58097;48.364;-1.224;2023-05-21T05:52:21;99813.59;;;12.07;84.14
70544;BME280;58097;48.364;-1.224;2023-05-21T05:54:46;99813.75;;;12.14;83.42
70544;BME280;58097;48.364;-1.224;2023-05-21T05:57:11;99813.09;;;12.20;84.18
70544;BME280;58097;48.364;-1.224;2023-05-21T05:59:37;99805.47;;;12.22;84.56
70544;BME280;58097;48.364;-1.224;2023-05-21T06:02:02;99811.38;;;12.19;85.04
70544;BME280;58097;48.364;-1.224;2023-05-21T06:04:28;99811.00;;;12.22;85.32
70544;BME280;58097;48.364;-1.224;2023-05-21T06:06:54;99813.97;;;12.20;85.74
70544;BME280;58097;48.364;-1.224;2023-05-21T06:09:21;99811.88;;;12.22;85.41
70544;BME280;58097;48.364;-1.224;2023-05-21T06:11:47;99820.00;;;12.32;85.32
70544;BME280;58097;48.364;-1.224;2023-05-21T06:14:12;99813.06;;;12.36;85.17
70544;BME280;58097;48.364;-1.224;2023-05-21T06:16:37;99819.28;;;12.38;84.70
70544;BME280;58097;48.364;-1.224;2023-05-21T06:19:03;99830.72;;;12.43;84.72
70544;BME280;58097;48.364;-1.224;2023-05-21T06:21:28;99833.50;;;12.51;84.90
70544;BME280;58097;48.364;-1.224;2023-05-21T06:23:53;99836.41;;;12.58;84.51
70544;BME280;58097;48.364;-1.224;2023-05-21T06:26:19;99841.75;;;12.67;83.54
70544;BME280;58097;48.364;-1.224;2023-05-21T06:28:46;99833.81;;;12.73;83.86
70544;BME280;58097;48.364;-1.224;2023-05-21T06:31:11;99838.47;;;12.80;83.83
70544;BME280;58097;48.364;-1.224;2023-05-21T06:33:37;99833.59;;;12.82;83.99
70544;BME280;58097;48.364;-1.224;2023-05-21T06:36:03;99839.50;;;12.79;84.52
70544;BME280;58097;48.364;-1.224;2023-05-21T06:38:28;99846.06;;;12.86;83.93
70544;BME280;58097;48.364;-1.224;2023-05-21T06:40:53;99840.84;;;12.91;83.81
70544;BME280;58097;48.364;-1.224;2023-05-21T06:43:19;99844.44;;;13.00;82.77
70544;BME280;58097;48.364;-1.224;2023-05-21T06:45:44;99841.84;;;13.07;83.91
70544;BME280;58097;48.364;-1.224;2023-05-21T06:48:10;99852.44;;;13.03;84.24
70544;BME280;58097;48.364;-1.224;2023-05-21T06:50:36;99848.06;;;13.09;83.53
70544;BME280;58097;48.364;-1.224;2023-05-21T06:53:02;99843.22;;;13.11;83.91
70544;BME280;58097;48.364;-1.224;2023-05-21T06:55:27;99843.91;;;13.13;83.71
70544;BME280;58097;48.364;-1.224;2023-05-21T06:57:52;99855.50;;;13.16;83.29
70544;BME280;58097;48.364;-1.224;2023-05-21T07:00:18;99852.03;;;13.22;83.00
70544;BME280;58097;48.364;-1.224;2023-05-21T07:02:43;99857.91;;;13.27;83.27
70544;BME280;58097;48.364;-1.224;2023-05-21T07:05:09;99861.03;;;13.32;83.89
70544;BME280;58097;48.364;-1.224;2023-05-21T07:07:34;99854.75;;;13.39;83.51
70544;BME280;58097;48.364;-1.224;2023-05-21T07:09:59;99848.47;;;13.45;82.85
70544;BME280;58097;48.364;-1.224;2023-05-21T07:12:25;99849.78;;;13.57;82.10
70544;BME280;58097;48.364;-1.224;2023-05-21T07:14:50;99841.25;;;13.67;82.61
70544;BME280;58097;48.364;-1.224;2023-05-21T07:17:15;99840.00;;;13.69;82.96
70544;BME280;58097;48.364;-1.224;2023-05-21T07:19:41;99836.66;;;13.74;82.46
70544;BME280;58097;48.364;-1.224;2023-05-21T07:22:06;99833.13;;;13.88;82.56
70544;BME280;58097;48.364;-1.224;2023-05-21T07:24:31;99837.56;;;13.97;82.34
70544;BME280;58097;48.364;-1.224;2023-05-21T07:26:57;99841.19;;;13.98;82.78
70544;BME280;58097;48.364;-1.224;2023-05-21T07:29:22;99843.84;;;14.14;82.51
70544;BME280;58097;48.364;-1.224;2023-05-21T07:31:47;99838.03;;;14.23;81.53
70544;BME280;58097;48.364;-1.224;2023-05-21T07:34:13;99838.81;;;14.17;81.58
70544;BME280;58097;48.364;-1.224;2023-05-21T07:36:38;99836.75;;;14.11;81.51
70544;BME280;58097;48.364;-1.224;2023-05-21T07:39:03;99833.28;;;14.09;81.96
70544;BME280;58097;48.364;-1.224;2023-05-21T07:41:29;99835.56;;;14.06;82.05
70544;BME280;58097;48.364;-1.224;2023-05-21T07:43:54;99837.03;;;14.16;81.60
70544;BME280;58097;48.364;-1.224;2023-05-21T07:46:20;99839.97;;;14.23;81.10
70544;BME280;58097;48.364;-1.224;2023-05-21T07:48:45;99842.38;;;14.26;81.23
70544;BME280;58097;48.364;-1.224;2023-05-21T07:51:12;99835.19;;;14.32;81.00
70544;BME280;58097;48.364;-1.224;2023-05-21T07:53:38;99839.03;;;14.31;82.05
70544;BME280;58097;48.364;-1.224;2023-05-21T07:56:04;99841.53;;;14.40;81.23
70544;BME280;58097;48.364;-1.224;2023-05-21T07:58:29;99845.25;;;14.55;82.14
70544;BME280;58097;48.364;-1.224;2023-05-21T08:00:55;99845.06;;;14.72;81.62
70544;BME280;58097;48.364;-1.224;2023-05-21T08:03:21;99841.47;;;14.86;81.21
70544;BME280;58097;48.364;-1.224;2023-05-21T08:05:47;99840.88;;;14.91;80.52
70544;BME280;58097;48.364;-1.224;2023-05-21T08:08:22;99843.78;;;14.82;79.47
70544;BME280;58097;48.364;-1.224;2023-05-21T08:10:47;99839.06;;;14.83;79.22
70544;BME280;58097;48.364;-1.224;2023-05-21T08:13:16;99834.06;;;14.93;79.78
70544;BME280;58097;48.364;-1.224;2023-05-21T08:15:42;99834.75;;;15.10;79.96
70544;BME280;58097;48.364;-1.224;2023-05-21T08:18:08;99839.56;;;15.16;80.58
70544;BME280;58097;48.364;-1.224;2023-05-21T08:20:33;99833.50;;;15.12;79.76
70544;BME280;58097;48.364;-1.224;2023-05-21T08:22:59;99831.97;;;15.10;79.62
70544;BME280;58097;48.364;-1.224;2023-05-21T08:25:27;99835.91;;;15.15;79.32
70544;BME280;58097;48.364;-1.224;2023-05-21T08:27:53;99839.25;;;15.26;79.86
70544;BME280;58097;48.364;-1.224;2023-05-21T08:30:19;99837.72;;;15.38;79.72
70544;BME280;58097;48.364;-1.224;2023-05-21T08:32:44;99838.66;;;15.45;78.84
70544;BME280;58097;48.364;-1.224;2023-05-21T08:35:10;99839.06;;;15.42;78.48
70544;BME280;58097;48.364;-1.224;2023-05-21T08:37:35;99840.38;;;15.46;78.69
70544;BME280;58097;48.364;-1.224;2023-05-21T08:40:01;99841.63;;;15.43;78.34
70544;BME280;58097;48.364;-1.224;2023-05-21T08:42:47;99833.38;;;15.50;78.71
70544;BME280;58097;48.364;-1.224;2023-05-21T08:45:14;99833.44;;;15.71;79.05
70544;BME280;58097;48.364;-1.224;2023-05-21T08:47:42;99831.06;;;15.90;78.43
70544;BME280;58097;48.364;-1.224;2023-05-21T08:50:10;99834.44;;;16.21;79.64
70544;BME280;58097;48.364;-1.224;2023-05-21T08:52:36;99830.00;;;16.55;78.61
70544;BME280;58097;48.364;-1.224;2023-05-21T08:55:05;99837.56;;;16.82;77.43
70544;BME280;58097;48.364;-1.224;2023-05-21T08:57:30;99828.03;;;17.04;76.44
70544;BME280;58097;48.364;-1.224;2023-05-21T08:59:56;99825.75;;;17.15;76.09
70544;BME280;58097;48.364;-1.224;2023-05-21T09:02:22;99831.91;;;17.38;76.88
70544;BME280;58097;48.364;-1.224;2023-05-21T09:04:49;99809.16;;;17.48;75.11
70544;BME280;58097;48.364;-1.224;2023-05-21T09:07:21;99812.59;;;17.50;74.16
70544;BME280;58097;48.364;-1.224;2023-05-21T09:09:53;99812.16;;;17.46;73.96
70544;BME280;58097;48.364;-1.224;2023-05-21T09:12:19;99812.56;;;17.43;74.27
70544;BME280;58097;48.364;-1.224;2023-05-21T09:14:46;99806.69;;;17.31;73.36
70544;BME280;58097;48.364;-1.224;2023-05-21T09:17:14;99800.88;;;17.26;73.95
70544;BME280;58097;48.364;-1.224;2023-05-21T09:20:05;99796.44;;;17.39;74.48
70544;BME280;58097;48.364;-1.224;2023-05-21T09:22:48;99795.63;;;17.58;74.57
70544;BME280;58097;48.364;-1.224;2023-05-21T09:25:15;99796.81;;;17.77;73.96
70544;BME280;58097;48.364;-1.224;2023-05-21T09:27:41;99802.91;;;17.93;74.20
70544;BME280;58097;48.364;-1.224;2023-05-21T09:30:13;99796.94;;;18.23;75.39
70544;BME280;58097;48.364;-1.224;2023-05-21T09:32:39;99795.41;;;18.34;72.59
70544;BME280;58097;48.364;-1.224;2023-05-21T09:37:36;99807.28;;;18.69;73.63
70544;BME280;58097;48.364;-1.224;2023-05-21T09:40:08;99806.81;;;18.78;70.87
70544;BME280;58097;48.364;-1.224;2023-05-21T09:42:34;99804.88;;;18.99;72.04
70544;BME280;58097;48.364;-1.224;2023-05-21T09:44:59;99810.66;;;19.17;72.31
70544;BME280;58097;48.364;-1.224;2023-05-21T09:47:25;99812.75;;;19.28;71.39
70544;BME280;58097;48.364;-1.224;2023-05-21T09:49:50;99810.78;;;19.42;70.81
70544;BME280;58097;48.364;-1.224;2023-05-21T09:52:23;99799.56;;;19.55;70.85
70544;BME280;58097;48.364;-1.224;2023-05-21T09:54:50;99802.31;;;19.62;70.70
70544;BME280;58097;48.364;-1.224;2023-05-21T09:57:15;99791.75;;;19.64;68.36
70544;BME280;58097;48.364;-1.224;2023-05-21T09:59:49;99794.16;;;19.54;67.50
70544;BME280;58097;48.364;-1.224;2023-05-21T10:02:21;99793.75;;;19.43;67.06
70544;BME280;58097;48.364;-1.224;2023-05-21T10:04:49;99793.94;;;19.48;67.42
70544;BME280;58097;48.364;-1.224;2023-05-21T10:07:17;99795.63;;;19.63;70.25
70544;BME280;58097;48.364;-1.224;2023-05-21T10:09:46;99804.16;;;19.81;67.79
70544;BME280;58097;48.364;-1.224;2023-05-21T10:12:14;99794.34;;;20.03;69.25
70544;BME280;58097;48.364;-1.224;2023-05-21T10:14:45;99790.69;;;20.03;65.55
70544;BME280;58097;48.364;-1.224;2023-05-21T10:17:14;99797.78;;;20.05;66.97
70544;BME280;58097;48.364;-1.224;2023-05-21T10:19:41;99800.53;;;20.12;66.51
70544;BME280;58097;48.364;-1.224;2023-05-21T10:22:08;99796.88;;;20.11;65.28
70544;BME280;58097;48.364;-1.224;2023-05-21T10:24:34;99794.56;;;20.02;66.01
70544;BME280;58097;48.364;-1.224;2023-05-21T10:27:01;99805.88;;;20.20;67.70
70544;BME280;58097;48.364;-1.224;2023-05-21T10:29:27;99799.78;;;20.30;67.05
70544;BME280;58097;48.364;-1.224;2023-05-21T10:31:53;99801.13;;;20.52;65.78
70544;BME280;58097;48.364;-1.224;2023-05-21T10:34:20;99800.97;;;20.72;68.04
70544;BME280;58097;48.364;-1.224;2023-05-21T10:36:47;99800.00;;;20.85;66.69
70544;BME280;58097;48.364;-1.224;2023-05-21T10:39:14;99798.41;;;21.14;67.19
70544;BME280;58097;48.364;-1.224;2023-05-21T10:41:52;99815.72;;;21.11;64.01
70544;BME280;58097;48.364;-1.224;2023-05-21T10:47:22;99809.69;;;21.07;63.21
70544;BME280;58097;48.364;-1.224;2023-05-21T10:52:51;99804.97;;;20.83;64.10
70544;BME280;58097;48.364;-1.224;2023-05-21T10:55:35;99800.94;;;20.97;65.09
70544;BME280;58097;48.364;-1.224;2023-05-21T11:00:34;99801.56;;;21.24;64.04
70544;BME280;58097;48.364;-1.224;2023-05-21T11:03:00;99805.75;;;21.33;63.18
70544;BME280;58097;48.364;-1.224;2023-05-21T11:05:54;99803.44;;;21.48;64.66
70544;BME280;58097;48.364;-1.224;2023-05-21T11:08:29;99808.03;;;21.61;61.65
70544;BME280;58097;48.364;-1.224;2023-05-21T11:10:57;99817.34;;;21.43;61.22
70544;BME280;58097;48.364;-1.224;2023-05-21T11:13:24;99806.94;;;21.44;61.37
70544;BME280;58097;48.364;-1.224;2023-05-21T11:21:17;99800.59;;;21.12;63.72
70544;BME280;58097;48.364;-1.224;2023-05-21T11:23:52;99800.03;;;21.21;62.63
70544;BME280;58097;48.364;-1.224;2023-05-21T11:26:19;99805.84;;;21.26;62.29
70544;BME280;58097;48.364;-1.224;2023-05-21T11:28:49;99800.34;;;21.13;63.84
70544;BME280;58097;48.364;-1.224;2023-05-21T11:31:22;99798.88;;;21.29;63.45
70544;BME280;58097;48.364;-1.224;2023-05-21T11:36:46;99788.38;;;20.99;61.60
70544;BME280;58097;48.364;-1.224;2023-05-21T11:39:18;99794.38;;;20.85;61.73
70544;BME280;58097;48.364;-1.224;2023-05-21T11:41:57;99789.16;;;20.88;61.89
70544;BME280;58097;48.364;-1.224;2023-05-21T11:44:38;99793.88;;;21.13;63.99
70544;BME280;58097;48.364;-1.224;2023-05-21T11:47:04;99786.78;;;21.28;62.33
70544;BME280;58097;48.364;-1.224;2023-05-21T11:49:30;99789.03;;;21.38;63.23
70544;BME280;58097;48.364;-1.224;2023-05-21T11:51:57;99788.41;;;21.36;61.74
70544;BME280;58097;48.364;-1.224;2023-05-21T11:54:23;99793.34;;;21.59;63.40
70544;BME280;58097;48.364;-1.224;2023-05-21T11:56:50;99782.50;;;21.92;64.08
70544;BME280;58097;48.364;-1.224;2023-05-21T11:59:16;99787.75;;;22.07;60.81
70544;BME280;58097;48.364;-1.224;2023-05-21T12:01:42;99781.00;;;22.08;60.21
70544;BME280;58097;48.364;-1.224;2023-05-21T12:04:07;99792.16;;;22.15;59.63
70544;BME280;58097;48.364;-1.224;2023-05-21T12:06:33;99785.78;;;22.08;60.07
70544;BME280;58097;48.364;-1.224;2023-05-21T12:08:58;99783.97;;;22.13;59.87
70544;BME280;58097;48.364;-1.224;2023-05-21T12:11:24;99788.72;;;22.13;60.77
70544;BME280;58097;48.364;-1.224;2023-05-21T12:13:51;99783.00;;;22.19;61.74
70544;BME280;58097;48.364;-1.224;2023-05-21T12:16:16;99789.81;;;22.12;60.49
70544;BME280;58097;48.364;-1.224;2023-05-21T12:18:42;99784.34;;;22.17;59.83
70544;BME280;58097;48.364;-1.224;2023-05-21T12:21:07;99778.81;;;21.92;58.00
70544;BME280;58097;48.364;-1.224;2023-05-21T12:23:33;99786.41;;;21.91;59.37
70544;BME280;58097;48.364;-1.224;2023-05-21T12:25:58;99787.94;;;21.76;59.68
70544;BME280;58097;48.364;-1.224;2023-05-21T12:28:24;99791.38;;;21.59;59.82
70544;BME280;58097;48.364;-1.224;2023-05-21T12:30:49;99797.47;;;21.56;59.05
70544;BME280;58097;48.364;-1.224;2023-05-21T12:33:15;99794.13;;;21.29;58.51
70544;BME280;58097;48.364;-1.224;2023-05-21T12:35:45;99788.03;;;21.32;60.28
70544;BME280;58097;48.364;-1.224;2023-05-21T12:38:12;99794.00;;;21.43;61.07
70544;BME280;58097;48.364;-1.224;2023-05-21T12:40:38;99790.38;;;21.54;60.47
70544;BME280;58097;48.364;-1.224;2023-05-21T12:43:04;99785.63;;;21.54;59.76
70544;BME280;58097;48.364;-1.224;2023-05-21T12:45:32;99785.84;;;21.71;61.23
70544;BME280;58097;48.364;-1.224;2023-05-21T12:48:01;99785.75;;;21.78;59.85
70544;BME280;58097;48.364;-1.224;2023-05-21T12:50:26;99778.31;;;21.83;58.91
70544;BME280;58097;48.364;-1.224;2023-05-21T12:52:57;99775.25;;;21.85;59.21
70544;BME280;58097;48.364;-1.224;2023-05-21T12:55:25;99775.25;;;21.85;58.42
70544;BME280;58097;48.364;-1.224;2023-05-21T12:58:00;99769.88;;;21.65;57.65
70544;BME280;58097;48.364;-1.224;2023-05-21T13:00:27;99779.94;;;21.43;58.00
70544;BME280;58097;48.364;-1.224;2023-05-21T13:02:52;99777.13;;;21.24;58.58
70544;BME280;58097;48.364;-1.224;2023-05-21T13:05:20;99774.09;;;21.01;58.09
70544;BME280;58097;48.364;-1.224;2023-05-21T13:07:46;99774.97;;;20.77;58.17